Página principal
METAR-TAF:

METAR-TAF

Aeroportos :

Mwanza, Tanzânia

latitude: 02-28S, longitude: 032-55E, altura: 1139 m

Observação actual do tempo

O boletim foi feito há 1 hora e 48 minutos, às 10:00 UTC
Vento 15 kt de nor-nordeste
Temperatura 26°C
Humidade 48%
Pressão 1016 hPa
Visibilidade 10 km ou mais
Nuvens dispersasa uma altura de 2400 ft
Poucas nuvensa uma altura de 2500 ft, Cumulonimbus.
Nuvens dispersasa uma altura de 9000 ft

METAR: HTMW 301000Z 03015KT 9999 SCT024 FEW025CB SCT090 26/14 Q1016 NOSIG

Hora: 14:48 (11:48 UTC)

Previsão

O boletim foi feito há 48 minutos, às 11:00 UTC
Previsão válida de 30 às 12 UTC a 01 às 12 UTC
Vento 10 kt de nor-noroeste
Visibilidade 10 km ou mais
Nuvens dispersasa uma altura de 2300 ft
Poucas nuvensa uma altura de 2400 ft, Cumulonimbus.
Nuvens fragmentadasa uma altura de 9000 ft
Tornando-se
de 01 às 03 UTC a 01 às 05 UTC
Vento 10 kt de este

TAF: HTMW 301100Z 3012/0112 34010KT 9999 SCT023 FEW024CB BKN090 BECMG 0103/0105 10010KT

Observações e previsões do tempo de mais de 4000 aeroportos (mensagens METAR e TAF).

As estações disponíveis são os pontos amarelos e vermelhos sobre o mapa.

Mova o rato sobre o mapa para ver o nome da estação.

Depois clique no ponto para visualizar as observações e previsões meteorológicas.

Para alterar o mapa : clique nos botões verdes com uma cruz preta para aumentar o zoom; no botão verde com uma pitada de zoom; ou nas setas verdes para mapas adjacentes.


METAR-TAF: